createdAt,value
2022-09-28T00:03:18.343Z,90.79
2022-09-28T00:08:36.779Z,90.96
2022-09-28T00:13:56.110Z,91.08
2022-09-28T00:19:14.340Z,90.79
2022-09-28T00:24:34.199Z,90.84
2022-09-28T00:29:52.492Z,91.14
2022-09-28T00:35:11.973Z,90.97
2022-09-28T00:41:46.148Z,91.03
2022-09-28T00:51:10.641Z,91.65
2022-09-28T00:59:43.679Z,91.84
2022-09-28T01:08:46.733Z,92.82
2022-09-28T01:12:25.883Z,93.4
2022-09-28T01:17:46.141Z,93.82
2022-09-28T01:23:04.854Z,94.32
2022-09-28T01:28:23.961Z,94.86
2022-09-28T01:33:43.316Z,95.65
2022-09-28T01:39:02.589Z,96.07
2022-09-28T01:44:22.173Z,96.35
2022-09-28T01:50:56.323Z,96.82
2022-09-28T01:55:00.376Z,97.27
2022-09-28T02:00:19.632Z,97.43
2022-09-28T02:05:38.402Z,97.58
2022-09-28T02:10:57.646Z,97.64
2022-09-28T02:16:17.444Z,97.64
2022-09-28T02:21:36.609Z,97.88
2022-09-28T02:26:55.580Z,98.09
2022-09-28T02:32:14.917Z,98.09
2022-09-28T02:37:34.412Z,98.3
2022-09-28T02:42:53.390Z,98.41
2022-09-28T02:48:12.686Z,98.6
2022-09-28T02:53:32.170Z,98.72
2022-09-28T02:58:52.673Z,98.77
2022-09-28T03:04:11.268Z,98.76
2022-09-28T03:09:30.296Z,98.78
2022-09-28T03:14:49.433Z,98.81
2022-09-28T03:20:08.727Z,98.83
2022-09-28T03:25:28.207Z,98.86
2022-09-28T03:30:47.460Z,98.89
2022-09-28T03:36:07.100Z,98.91
2022-09-28T03:41:25.851Z,98.94
2022-09-28T03:46:45.546Z,98.95
2022-09-28T03:52:04.730Z,99.02
2022-09-28T03:57:24.280Z,99.07
2022-09-28T04:02:44.162Z,99.16
2022-09-28T04:08:03.244Z,99.24
2022-09-28T04:13:22.370Z,99.27
2022-09-28T04:18:42.047Z,99.27
2022-09-28T04:24:01.787Z,99.26
2022-09-28T04:29:20.988Z,99.37
2022-09-28T04:34:43.855Z,99.25
2022-09-28T04:39:59.399Z,99.16
2022-09-28T04:45:18.316Z,99.08
2022-09-28T04:50:37.749Z,98.87
2022-09-28T04:55:56.792Z,98.69
2022-09-28T05:01:15.927Z,98.59
2022-09-28T05:06:35.171Z,98.66
2022-09-28T05:11:55.167Z,98.71
2022-09-28T05:17:13.573Z,98.68
2022-09-28T05:22:32.767Z,98.59
2022-09-28T05:27:52.001Z,98.54
2022-09-28T05:33:10.906Z,98.41
2022-09-28T05:38:30.565Z,98.44
2022-09-28T05:43:49.466Z,98.28
2022-09-28T05:49:34.406Z,98.38
2022-09-28T05:54:53.380Z,98.47
2022-09-28T06:00:12.302Z,98.51
2022-09-28T06:05:31.514Z,98.28
2022-09-28T06:10:51.119Z,98.1
2022-09-28T06:16:10.909Z,97.55
2022-09-28T06:21:30.558Z,97.04
2022-09-28T06:26:50.171Z,97.05
2022-09-28T06:32:09.154Z,96.67
2022-09-28T06:37:29.549Z,96.71
2022-09-28T06:42:48.944Z,96.38
2022-09-28T06:48:16.230Z,95.8
2022-09-28T06:53:26.395Z,95.58
2022-09-28T06:58:45.558Z,95.45
2022-09-28T07:04:04.935Z,95.69
2022-09-28T07:09:31.143Z,95.38
2022-09-28T07:14:47.620Z,95.26
2022-09-28T07:20:14.044Z,94.41
2022-09-28T07:25:22.628Z,92.81
2022-09-28T07:30:42.350Z,92.78
2022-09-28T07:36:01.325Z,92.47
2022-09-28T07:41:20.901Z,92.24
2022-09-28T07:46:39.686Z,91.35
2022-09-28T07:52:00.088Z,89.52
2022-09-28T07:58:34.251Z,89.99
2022-09-28T08:02:50.954Z,91.02
2022-09-28T08:07:58.444Z,92.04
2022-09-28T08:13:16.467Z,93.12
2022-09-28T08:18:35.534Z,91.71
2022-09-28T08:23:53.294Z,92.16
2022-09-28T08:29:12.630Z,88.45
2022-09-28T08:34:32.277Z,86.47
2022-09-28T08:41:06.434Z,82.46
2022-09-28T08:50:31.326Z,74.56
2022-09-28T08:55:50.870Z,73.08
2022-09-28T09:04:56.376Z,69.49
2022-09-28T09:06:29.728Z,70.79
2022-09-28T09:11:48.966Z,70.05
2022-09-28T09:17:07.893Z,75.12
2022-09-28T09:22:26.814Z,75.26
2022-09-28T09:27:45.950Z,69.9
2022-09-28T09:33:05.301Z,69.33
2022-09-28T09:38:23.505Z,74.86
2022-09-28T09:43:43.091Z,75.92
2022-09-28T09:50:17.255Z,77.62
2022-09-28T09:59:41.871Z,71.19
2022-09-28T10:05:00.404Z,71.36
2022-09-28T10:10:19.594Z,65.21
2022-09-28T10:16:53.897Z,62.76
2022-09-28T10:20:59.201Z,61.77
2022-09-28T10:29:44.254Z,61.88
2022-09-28T10:33:47.633Z,65.33
2022-09-28T10:36:55.085Z,59.45
2022-09-28T10:42:13.738Z,62.92
2022-09-28T10:47:32.496Z,65.72
2022-09-28T10:52:51.591Z,66.14
2022-09-28T10:58:10.974Z,64.69
2022-09-28T11:03:29.809Z,64.23
2022-09-28T11:08:49.876Z,63.58
2022-09-28T11:14:09.461Z,62.53
2022-09-28T11:19:37.256Z,60.76
2022-09-28T11:24:48.042Z,60.12
2022-09-28T11:30:07.278Z,55.99
2022-09-28T11:35:26.669Z,58.52
2022-09-28T11:40:45.630Z,62.18
2022-09-28T11:46:04.519Z,59.9
2022-09-28T11:51:23.859Z,58.02
2022-09-28T11:56:42.634Z,61.42
2022-09-28T12:02:01.659Z,62.22
2022-09-28T12:07:21.173Z,63.91
2022-09-28T12:12:40.305Z,66.83
2022-09-28T12:17:59.468Z,65.8
2022-09-28T12:23:18.641Z,64.31
2022-09-28T12:30:17.226Z,62
2022-09-28T12:34:31.884Z,63.95
2022-09-28T12:39:24.241Z,64.98
2022-09-28T12:44:35.050Z,60.69
2022-09-28T12:50:36.876Z,62.63
2022-09-28T12:55:13.302Z,59.5
2022-09-28T13:00:32.234Z,59.13
2022-09-28T13:05:51.226Z,57.47
2022-09-28T13:12:18.948Z,57.48
2022-09-28T13:16:29.943Z,59.25
2022-09-28T13:21:48.911Z,58.02
2022-09-28T13:27:08.562Z,62.57
2022-09-28T13:32:28.438Z,59.12
2022-09-28T13:39:02.568Z,55.64
2022-09-28T13:43:06.598Z,54.77
2022-09-28T13:48:25.646Z,56.51
2022-09-28T13:53:43.389Z,59.37
2022-09-28T13:59:02.600Z,57.23
2022-09-28T14:04:22.074Z,59.3
2022-09-28T14:09:42.201Z,63.02
2022-09-28T14:15:01.592Z,62.24
2022-09-28T14:21:35.778Z,63.18
2022-09-28T14:25:40.008Z,67.22
2022-09-28T14:30:59.206Z,61.39
2022-09-28T14:36:18.947Z,62.03
2022-09-28T14:41:38.415Z,59.71
2022-09-28T14:48:12.568Z,57.8
2022-09-28T14:52:18.436Z,56.52
2022-09-28T14:57:37.351Z,58.54
2022-09-28T15:02:56.302Z,60.71
2022-09-28T15:08:15.684Z,63.7
2022-09-28T15:13:34.557Z,65.28
2022-09-28T15:18:52.651Z,64.71
2022-09-28T15:24:11.441Z,60.81
2022-09-28T15:30:45.589Z,59.33
2022-09-28T15:40:10.291Z,59.41
2022-09-28T15:45:28.344Z,57.93
2022-09-28T15:50:47.262Z,58.85
2022-09-28T15:56:06.147Z,60.12
2022-09-28T16:02:40.345Z,63.22
2022-09-28T16:06:45.626Z,64.29
2022-09-28T16:12:03.856Z,63.43
2022-09-28T16:17:22.773Z,65.61
2022-09-28T16:23:56.963Z,68.39
2022-09-28T16:33:21.222Z,71.74
2022-09-28T16:38:47.434Z,74.01
2022-09-28T16:43:58.554Z,76.12
2022-09-28T16:49:16.712Z,78.01
2022-09-28T16:54:36.460Z,79.49
2022-09-28T16:59:56.385Z,80.65
2022-09-28T17:05:16.067Z,81.75
2022-09-28T17:10:44.989Z,83.17
2022-09-28T17:17:12.591Z,84.81
2022-09-28T17:21:25.015Z,86.61
2022-09-28T17:28:23.621Z,87.59
2022-09-28T17:31:53.354Z,87.03
2022-09-28T17:47:50.620Z,86.72
2022-09-28T17:58:28.395Z,88.64
2022-09-28T18:07:01.458Z,89.54
2022-09-28T18:09:06.948Z,89.66
2022-09-28T18:14:24.507Z,90.16
2022-09-28T18:19:43.985Z,90.53
2022-09-28T18:25:02.802Z,90.86
2022-09-28T18:30:21.814Z,90.91
2022-09-28T18:35:41.616Z,91.04
2022-09-28T18:41:00.043Z,91.9
2022-09-28T18:46:20.016Z,93
2022-09-28T18:51:39.732Z,93.29
2022-09-28T18:56:59.162Z,93.82
2022-09-28T19:03:33.337Z,94.18
2022-09-28T19:07:36.333Z,94.11
2022-09-28T19:12:55.214Z,94.66
2022-09-28T19:18:15.731Z,94.41
2022-09-28T19:23:33.983Z,94.15
2022-09-28T19:28:52.823Z,93.41
2022-09-28T19:34:21.956Z,93.19
2022-09-28T19:39:30.830Z,93.54
2022-09-28T19:44:50.406Z,93.99
2022-09-28T19:50:09.515Z,94.8
2022-09-28T19:55:29.546Z,95.31
2022-09-28T20:00:49.225Z,95.95
2022-09-28T20:07:23.339Z,96.15
2022-09-28T20:11:37.998Z,96.61
2022-09-28T20:16:48.182Z,97.07
2022-09-28T20:22:06.289Z,97.55
2022-09-28T20:27:26.413Z,97.75
2022-09-28T20:32:49.360Z,98.06
2022-09-28T20:38:04.360Z,98.18
2022-09-28T20:43:24.427Z,98.26
2022-09-28T20:49:58.575Z,98.41
2022-09-28T20:54:02.960Z,98.55
2022-09-28T21:01:01.510Z,98.58
2022-09-28T21:05:18.252Z,98.77
2022-09-28T21:18:34.539Z,98.89
2022-09-28T21:22:49.937Z,99.02
2022-09-28T21:29:48.547Z,99.11
2022-09-28T21:38:21.644Z,99.2
2022-09-28T21:47:16.493Z,99.4
2022-09-28T21:52:36.016Z,99.5
2022-09-28T21:57:54.408Z,99.49
2022-09-28T22:03:13.099Z,99.29
2022-09-28T22:09:50.475Z,99.06
2022-09-28T22:14:03.830Z,98.83
2022-09-28T22:19:12.264Z,98.52
2022-09-28T22:24:29.976Z,97.88
2022-09-28T22:29:50.197Z,97.64
2022-09-28T22:36:24.370Z,97.38
2022-09-28T22:45:48.937Z,97.22
2022-09-28T22:54:22.003Z,97.06
2022-09-28T23:02:55.111Z,96.11
2022-09-28T23:07:03.112Z,95.83
2022-09-28T23:12:22.697Z,95.05
2022-09-28T23:17:41.177Z,93.51
2022-09-28T23:23:00.293Z,93.66
2022-09-28T23:28:19.773Z,93.95
2022-09-28T23:33:39.868Z,93.48
2022-09-28T23:38:59.001Z,93.07
2022-09-28T23:45:33.158Z,92.69
2022-09-28T23:49:39.130Z,92.55
2022-09-28T23:55:05.851Z,93.33
